sensor_id;sensor_type;location;lat;lon;timestamp;pressure;altitude;pressure_sealevel;temperature
34023;BMP280;20673;48.980;8.138;2022-08-06T00:00:00;100663.32;;;21.10
34023;BMP280;20673;48.980;8.138;2022-08-06T00:02:29;100662.34;;;21.08
34023;BMP280;20673;48.980;8.138;2022-08-06T00:04:58;100667.93;;;21.09
34023;BMP280;20673;48.980;8.138;2022-08-06T00:07:25;100667.97;;;21.08
34023;BMP280;20673;48.980;8.138;2022-08-06T00:09:52;100665.31;;;21.03
34023;BMP280;20673;48.980;8.138;2022-08-06T00:12:18;100669.79;;;21.05
34023;BMP280;20673;48.980;8.138;2022-08-06T00:14:44;100666.19;;;21.06
34023;BMP280;20673;48.980;8.138;2022-08-06T00:17:12;100665.59;;;21.02
34023;BMP280;20673;48.980;8.138;2022-08-06T00:19:38;100667.79;;;21.04
34023;BMP280;20673;48.980;8.138;2022-08-06T00:22:04;100669.39;;;21.04
34023;BMP280;20673;48.980;8.138;2022-08-06T00:24:30;100666.81;;;21.00
34023;BMP280;20673;48.980;8.138;2022-08-06T00:26:57;100671.22;;;20.98
34023;BMP280;20673;48.980;8.138;2022-08-06T00:29:23;100674.66;;;20.97
34023;BMP280;20673;48.980;8.138;2022-08-06T00:31:49;100676.00;;;20.87
34023;BMP280;20673;48.980;8.138;2022-08-06T00:34:15;100677.83;;;20.90
34023;BMP280;20673;48.980;8.138;2022-08-06T00:36:41;100677.84;;;20.83
34023;BMP280;20673;48.980;8.138;2022-08-06T00:39:08;100676.04;;;20.82
34023;BMP280;20673;48.980;8.138;2022-08-06T00:41:35;100680.48;;;20.82
34023;BMP280;20673;48.980;8.138;2022-08-06T00:44:03;100682.83;;;20.73
34023;BMP280;20673;48.980;8.138;2022-08-06T00:46:29;100683.73;;;20.71
34023;BMP280;20673;48.980;8.138;2022-08-06T00:48:56;100686.22;;;20.72
34023;BMP280;20673;48.980;8.138;2022-08-06T00:51:23;100681.79;;;20.67
34023;BMP280;20673;48.980;8.138;2022-08-06T00:53:51;100686.11;;;20.60
34023;BMP280;20673;48.980;8.138;2022-08-06T00:56:17;100685.95;;;20.57
34023;BMP280;20673;48.980;8.138;2022-08-06T00:58:44;100691.39;;;20.55
34023;BMP280;20673;48.980;8.138;2022-08-06T01:01:10;100699.40;;;20.46
34023;BMP280;20673;48.980;8.138;2022-08-06T01:03:37;100693.26;;;20.45
34023;BMP280;20673;48.980;8.138;2022-08-06T01:06:04;100694.17;;;20.46
34023;BMP280;20673;48.980;8.138;2022-08-06T01:08:30;100694.59;;;20.33
34023;BMP280;20673;48.980;8.138;2022-08-06T01:10:56;100693.95;;;20.30
34023;BMP280;20673;48.980;8.138;2022-08-06T01:13:22;100698.43;;;20.22
34023;BMP280;20673;48.980;8.138;2022-08-06T01:18:35;100690.89;;;20.24
34023;BMP280;20673;48.980;8.138;2022-08-06T01:27:10;100700.67;;;20.17
34023;BMP280;20673;48.980;8.138;2022-08-06T01:29:29;100702.62;;;20.07
34023;BMP280;20673;48.980;8.138;2022-08-06T01:32:10;100701.86;;;19.98
34023;BMP280;20673;48.980;8.138;2022-08-06T01:34:48;100698.28;;;19.93
34023;BMP280;20673;48.980;8.138;2022-08-06T01:40:13;100698.53;;;19.88
34023;BMP280;20673;48.980;8.138;2022-08-06T01:42:43;100697.39;;;19.90
34023;BMP280;20673;48.980;8.138;2022-08-06T01:45:14;100695.38;;;19.81
34023;BMP280;20673;48.980;8.138;2022-08-06T01:47:45;100694.27;;;19.82
34023;BMP280;20673;48.980;8.138;2022-08-06T01:50:15;100696.87;;;19.77
34023;BMP280;20673;48.980;8.138;2022-08-06T01:52:43;100698.92;;;19.79
34023;BMP280;20673;48.980;8.138;2022-08-06T01:55:16;100700.33;;;19.74
34023;BMP280;20673;48.980;8.138;2022-08-06T01:57:50;100688.95;;;19.65
34023;BMP280;20673;48.980;8.138;2022-08-06T02:00:18;100691.85;;;19.66
34023;BMP280;20673;48.980;8.138;2022-08-06T02:02:46;100690.95;;;19.62
34023;BMP280;20673;48.980;8.138;2022-08-06T02:05:17;100697.22;;;19.51
34023;BMP280;20673;48.980;8.138;2022-08-06T02:07:49;100702.25;;;19.47
34023;BMP280;20673;48.980;8.138;2022-08-06T02:10:19;100701.76;;;19.43
34023;BMP280;20673;48.980;8.138;2022-08-06T02:12:48;100703.16;;;19.51
34023;BMP280;20673;48.980;8.138;2022-08-06T02:15:25;100701.95;;;19.44
34023;BMP280;20673;48.980;8.138;2022-08-06T02:17:57;100708.53;;;19.40
34023;BMP280;20673;48.980;8.138;2022-08-06T02:20:29;100707.72;;;19.28
34023;BMP280;20673;48.980;8.138;2022-08-06T02:22:59;100705.80;;;19.33
34023;BMP280;20673;48.980;8.138;2022-08-06T02:25:28;100708.53;;;19.21
34023;BMP280;20673;48.980;8.138;2022-08-06T02:27:58;100709.04;;;19.21
34023;BMP280;20673;48.980;8.138;2022-08-06T02:30:31;100704.01;;;19.11
34023;BMP280;20673;48.980;8.138;2022-08-06T02:32:57;100701.45;;;19.11
34023;BMP280;20673;48.980;8.138;2022-08-06T02:35:25;100703.76;;;18.98
34023;BMP280;20673;48.980;8.138;2022-08-06T02:38:04;100701.50;;;18.97
34023;BMP280;20673;48.980;8.138;2022-08-06T02:40:36;100706.90;;;18.91
34023;BMP280;20673;48.980;8.138;2022-08-06T02:43:14;100720.04;;;18.80
34023;BMP280;20673;48.980;8.138;2022-08-06T02:45:48;100726.36;;;18.80
34023;BMP280;20673;48.980;8.138;2022-08-06T02:48:32;100723.25;;;18.76
34023;BMP280;20673;48.980;8.138;2022-08-06T02:51:01;100726.09;;;18.70
34023;BMP280;20673;48.980;8.138;2022-08-06T02:53:34;100726.68;;;18.66
34023;BMP280;20673;48.980;8.138;2022-08-06T02:56:11;100723.61;;;18.61
34023;BMP280;20673;48.980;8.138;2022-08-06T02:58:44;100729.75;;;18.53
34023;BMP280;20673;48.980;8.138;2022-08-06T03:01:20;100727.79;;;18.51
34023;BMP280;20673;48.980;8.138;2022-08-06T03:03:50;100731.15;;;18.46
34023;BMP280;20673;48.980;8.138;2022-08-06T03:06:20;100735.06;;;18.44
34023;BMP280;20673;48.980;8.138;2022-08-06T03:08:47;100730.14;;;18.38
34023;BMP280;20673;48.980;8.138;2022-08-06T03:11:16;100734.76;;;18.33
34023;BMP280;20673;48.980;8.138;2022-08-06T03:13:44;100734.08;;;18.30
34023;BMP280;20673;48.980;8.138;2022-08-06T03:16:12;100737.00;;;18.28
34023;BMP280;20673;48.980;8.138;2022-08-06T03:18:41;100740.55;;;18.24
34023;BMP280;20673;48.980;8.138;2022-08-06T03:21:09;100740.15;;;18.18
34023;BMP280;20673;48.980;8.138;2022-08-06T03:23:37;100739.50;;;18.14
34023;BMP280;20673;48.980;8.138;2022-08-06T03:26:07;100740.67;;;18.03
34023;BMP280;20673;48.980;8.138;2022-08-06T03:28:35;100750.21;;;18.04
34023;BMP280;20673;48.980;8.138;2022-08-06T03:31:03;100748.43;;;18.05
34023;BMP280;20673;48.980;8.138;2022-08-06T03:33:31;100749.87;;;17.99
34023;BMP280;20673;48.980;8.138;2022-08-06T03:36:01;100749.56;;;17.95
34023;BMP280;20673;48.980;8.138;2022-08-06T03:38:37;100754.06;;;17.89
34023;BMP280;20673;48.980;8.138;2022-08-06T03:41:03;100753.46;;;17.85
34023;BMP280;20673;48.980;8.138;2022-08-06T03:43:30;100757.04;;;17.85
34023;BMP280;20673;48.980;8.138;2022-08-06T03:46:00;100762.72;;;17.83
34023;BMP280;20673;48.980;8.138;2022-08-06T03:48:32;100760.25;;;17.81
34023;BMP280;20673;48.980;8.138;2022-08-06T03:51:02;100765.23;;;17.79
34023;BMP280;20673;48.980;8.138;2022-08-06T03:53:31;100768.23;;;17.65
34023;BMP280;20673;48.980;8.138;2022-08-06T03:56:02;100764.35;;;17.61
34023;BMP280;20673;48.980;8.138;2022-08-06T03:58:32;100765.71;;;17.59
34023;BMP280;20673;48.980;8.138;2022-08-06T04:01:04;100760.78;;;17.62
34023;BMP280;20673;48.980;8.138;2022-08-06T04:03:34;100767.36;;;17.57
34023;BMP280;20673;48.980;8.138;2022-08-06T04:06:02;100767.45;;;17.54
34023;BMP280;20673;48.980;8.138;2022-08-06T04:08:31;100773.81;;;17.51
34023;BMP280;20673;48.980;8.138;2022-08-06T04:10:59;100769.68;;;17.44
34023;BMP280;20673;48.980;8.138;2022-08-06T04:13:29;100771.58;;;17.42
34023;BMP280;20673;48.980;8.138;2022-08-06T04:15:56;100769.78;;;17.41
34023;BMP280;20673;48.980;8.138;2022-08-06T04:18:27;100772.87;;;17.36
34023;BMP280;20673;48.980;8.138;2022-08-06T04:20:59;100780.61;;;17.30
34023;BMP280;20673;48.980;8.138;2022-08-06T04:23:26;100780.70;;;17.32
34023;BMP280;20673;48.980;8.138;2022-08-06T04:25:55;100780.06;;;17.30
34023;BMP280;20673;48.980;8.138;2022-08-06T04:28:26;100779.87;;;17.26
34023;BMP280;20673;48.980;8.138;2022-08-06T04:30:56;100777.15;;;17.25
34023;BMP280;20673;48.980;8.138;2022-08-06T04:33:25;100783.79;;;17.21
34023;BMP280;20673;48.980;8.138;2022-08-06T04:35:52;100786.43;;;17.23
34023;BMP280;20673;48.980;8.138;2022-08-06T04:38:22;100789.25;;;17.23
34023;BMP280;20673;48.980;8.138;2022-08-06T04:40:49;100793.66;;;17.23
34023;BMP280;20673;48.980;8.138;2022-08-06T04:43:16;100796.83;;;17.31
34023;BMP280;20673;48.980;8.138;2022-08-06T04:45:43;100798.18;;;17.30
34023;BMP280;20673;48.980;8.138;2022-08-06T04:48:11;100796.70;;;17.30
34023;BMP280;20673;48.980;8.138;2022-08-06T04:50:42;100802.17;;;17.28
34023;BMP280;20673;48.980;8.138;2022-08-06T04:53:12;100806.20;;;17.26
34023;BMP280;20673;48.980;8.138;2022-08-06T04:55:41;100799.28;;;17.25
34023;BMP280;20673;48.980;8.138;2022-08-06T04:58:09;100808.95;;;17.23
34023;BMP280;20673;48.980;8.138;2022-08-06T05:00:43;100811.03;;;17.10
34023;BMP280;20673;48.980;8.138;2022-08-06T05:03:10;100814.22;;;17.15
34023;BMP280;20673;48.980;8.138;2022-08-06T05:05:47;100814.76;;;17.15
34023;BMP280;20673;48.980;8.138;2022-08-06T05:08:15;100815.34;;;17.15
34023;BMP280;20673;48.980;8.138;2022-08-06T05:13:37;100819.03;;;17.21
34023;BMP280;20673;48.980;8.138;2022-08-06T05:16:08;100817.93;;;17.25
34023;BMP280;20673;48.980;8.138;2022-08-06T05:18:43;100829.04;;;17.30
34023;BMP280;20673;48.980;8.138;2022-08-06T05:21:14;100828.75;;;17.30
34023;BMP280;20673;48.980;8.138;2022-08-06T05:23:48;100830.08;;;17.34
34023;BMP280;20673;48.980;8.138;2022-08-06T05:26:16;100833.65;;;17.34
34023;BMP280;20673;48.980;8.138;2022-08-06T05:28:42;100832.61;;;17.33
34023;BMP280;20673;48.980;8.138;2022-08-06T05:31:09;100835.15;;;17.37
34023;BMP280;20673;48.980;8.138;2022-08-06T05:33:38;100837.00;;;17.41
34023;BMP280;20673;48.980;8.138;2022-08-06T05:36:11;100842.19;;;17.46
34023;BMP280;20673;48.980;8.138;2022-08-06T05:38:40;100840.32;;;17.55
34023;BMP280;20673;48.980;8.138;2022-08-06T05:41:11;100839.93;;;17.64
34023;BMP280;20673;48.980;8.138;2022-08-06T05:43:39;100841.00;;;17.67
34023;BMP280;20673;48.980;8.138;2022-08-06T05:46:13;100841.05;;;17.73
34023;BMP280;20673;48.980;8.138;2022-08-06T05:48:55;100846.59;;;17.74
34023;BMP280;20673;48.980;8.138;2022-08-06T05:51:40;100845.87;;;17.84
34023;BMP280;20673;48.980;8.138;2022-08-06T05:57:07;100848.58;;;17.96
34023;BMP280;20673;48.980;8.138;2022-08-06T05:59:37;100857.82;;;17.99
34023;BMP280;20673;48.980;8.138;2022-08-06T06:02:06;100855.46;;;18.07
34023;BMP280;20673;48.980;8.138;2022-08-06T06:04:35;100857.73;;;18.09
34023;BMP280;20673;48.980;8.138;2022-08-06T06:07:02;100859.81;;;18.21
34023;BMP280;20673;48.980;8.138;2022-08-06T06:09:29;100857.31;;;18.15
34023;BMP280;20673;48.980;8.138;2022-08-06T06:11:57;100861.09;;;18.22
34023;BMP280;20673;48.980;8.138;2022-08-06T06:14:33;100863.47;;;18.25
34023;BMP280;20673;48.980;8.138;2022-08-06T06:23:06;100867.31;;;18.62
34023;BMP280;20673;48.980;8.138;2022-08-06T06:28:31;100872.12;;;18.85
34023;BMP280;20673;48.980;8.138;2022-08-06T06:37:05;100874.47;;;19.06
34023;BMP280;20673;48.980;8.138;2022-08-06T06:39:41;100875.67;;;19.21
34023;BMP280;20673;48.980;8.138;2022-08-06T06:42:19;100875.14;;;19.24
34023;BMP280;20673;48.980;8.138;2022-08-06T06:45:00;100872.73;;;19.25
34023;BMP280;20673;48.980;8.138;2022-08-06T06:47:40;100878.81;;;19.41
34023;BMP280;20673;48.980;8.138;2022-08-06T06:50:27;100880.13;;;19.54
34023;BMP280;20673;48.980;8.138;2022-08-06T06:52:54;100879.21;;;19.62
34023;BMP280;20673;48.980;8.138;2022-08-06T06:55:35;100885.39;;;19.73
34023;BMP280;20673;48.980;8.138;2022-08-06T06:58:16;100883.00;;;19.86
34023;BMP280;20673;48.980;8.138;2022-08-06T07:00:40;100888.33;;;19.95
34023;BMP280;20673;48.980;8.138;2022-08-06T07:03:09;100884.00;;;20.07
34023;BMP280;20673;48.980;8.138;2022-08-06T07:05:39;100888.18;;;20.25
34023;BMP280;20673;48.980;8.138;2022-08-06T07:08:08;100891.48;;;20.34
34023;BMP280;20673;48.980;8.138;2022-08-06T07:10:38;100888.74;;;20.30
34023;BMP280;20673;48.980;8.138;2022-08-06T07:13:07;100892.61;;;20.25
34023;BMP280;20673;48.980;8.138;2022-08-06T07:15:36;100892.36;;;20.40
34023;BMP280;20673;48.980;8.138;2022-08-06T07:18:04;100898.40;;;20.36
34023;BMP280;20673;48.980;8.138;2022-08-06T07:20:32;100894.18;;;20.59
34023;BMP280;20673;48.980;8.138;2022-08-06T07:23:02;100892.22;;;20.63
34023;BMP280;20673;48.980;8.138;2022-08-06T07:25:30;100889.29;;;20.72
34023;BMP280;20673;48.980;8.138;2022-08-06T07:27:57;100893.90;;;20.89
34023;BMP280;20673;48.980;8.138;2022-08-06T07:30:23;100898.51;;;20.89
34023;BMP280;20673;48.980;8.138;2022-08-06T07:32:50;100895.08;;;20.95
34023;BMP280;20673;48.980;8.138;2022-08-06T07:35:19;100898.56;;;21.09
34023;BMP280;20673;48.980;8.138;2022-08-06T07:37:56;100898.57;;;21.25
34023;BMP280;20673;48.980;8.138;2022-08-06T07:40:31;100899.86;;;21.35
34023;BMP280;20673;48.980;8.138;2022-08-06T07:43:06;100901.34;;;21.41
34023;BMP280;20673;48.980;8.138;2022-08-06T07:45:33;100900.55;;;21.59
34023;BMP280;20673;48.980;8.138;2022-08-06T07:48:04;100897.50;;;21.70
34023;BMP280;20673;48.980;8.138;2022-08-06T07:50:31;100894.81;;;21.80
34023;BMP280;20673;48.980;8.138;2022-08-06T07:52:59;100896.76;;;21.87
34023;BMP280;20673;48.980;8.138;2022-08-06T07:55:27;100902.00;;;21.82
34023;BMP280;20673;48.980;8.138;2022-08-06T07:57:56;100899.84;;;22.02
34023;BMP280;20673;48.980;8.138;2022-08-06T08:00:24;100905.39;;;22.06
34023;BMP280;20673;48.980;8.138;2022-08-06T08:02:53;100902.18;;;22.13
34023;BMP280;20673;48.980;8.138;2022-08-06T08:05:39;100896.84;;;22.42
34023;BMP280;20673;48.980;8.138;2022-08-06T08:08:27;100903.04;;;22.57
34023;BMP280;20673;48.980;8.138;2022-08-06T08:10:55;100897.87;;;22.30
34023;BMP280;20673;48.980;8.138;2022-08-06T08:13:23;100899.76;;;22.56
34023;BMP280;20673;48.980;8.138;2022-08-06T08:15:51;100905.35;;;22.71
34023;BMP280;20673;48.980;8.138;2022-08-06T08:18:18;100910.29;;;22.58
34023;BMP280;20673;48.980;8.138;2022-08-06T08:20:45;100904.47;;;22.58
34023;BMP280;20673;48.980;8.138;2022-08-06T08:23:14;100902.98;;;22.79
34023;BMP280;20673;48.980;8.138;2022-08-06T08:25:40;100903.04;;;22.85
34023;BMP280;20673;48.980;8.138;2022-08-06T08:28:08;100901.29;;;23.06
34023;BMP280;20673;48.980;8.138;2022-08-06T08:30:38;100901.86;;;23.12
34023;BMP280;20673;48.980;8.138;2022-08-06T08:33:05;100903.01;;;23.39
34023;BMP280;20673;48.980;8.138;2022-08-06T08:35:31;100905.60;;;23.44
34023;BMP280;20673;48.980;8.138;2022-08-06T08:37:58;100902.22;;;23.56
34023;BMP280;20673;48.980;8.138;2022-08-06T08:40:26;100898.09;;;23.93
34023;BMP280;20673;48.980;8.138;2022-08-06T08:42:58;100899.85;;;23.92
34023;BMP280;20673;48.980;8.138;2022-08-06T08:45:27;100893.86;;;24.08
34023;BMP280;20673;48.980;8.138;2022-08-06T08:47:56;100901.31;;;24.13
34023;BMP280;20673;48.980;8.138;2022-08-06T08:50:28;100884.54;;;24.45
34023;BMP280;20673;48.980;8.138;2022-08-06T08:53:08;100889.79;;;24.55
34023;BMP280;20673;48.980;8.138;2022-08-06T08:55:35;100887.86;;;24.68
34023;BMP280;20673;48.980;8.138;2022-08-06T08:58:02;100888.76;;;24.61
34023;BMP280;20673;48.980;8.138;2022-08-06T09:00:28;100883.52;;;25.06
34023;BMP280;20673;48.980;8.138;2022-08-06T09:02:56;100887.68;;;24.96
34023;BMP280;20673;48.980;8.138;2022-08-06T09:05:23;100881.78;;;25.04
34023;BMP280;20673;48.980;8.138;2022-08-06T09:07:52;100893.73;;;24.97
34023;BMP280;20673;48.980;8.138;2022-08-06T09:10:18;100890.34;;;24.93
34023;BMP280;20673;48.980;8.138;2022-08-06T09:12:44;100895.88;;;24.80
34023;BMP280;20673;48.980;8.138;2022-08-06T09:15:12;100890.40;;;25.31
34023;BMP280;20673;48.980;8.138;2022-08-06T09:17:38;100886.91;;;25.72
34023;BMP280;20673;48.980;8.138;2022-08-06T09:20:05;100905.39;;;25.71
34023;BMP280;20673;48.980;8.138;2022-08-06T09:22:32;100899.45;;;25.57
34023;BMP280;20673;48.980;8.138;2022-08-06T09:24:58;100890.32;;;25.55
34023;BMP280;20673;48.980;8.138;2022-08-06T09:27:32;100886.39;;;25.25
34023;BMP280;20673;48.980;8.138;2022-08-06T09:29:59;100887.73;;;25.32
34023;BMP280;20673;48.980;8.138;2022-08-06T09:32:46;100897.79;;;25.66
34023;BMP280;20673;48.980;8.138;2022-08-06T09:35:28;100896.64;;;25.71
34023;BMP280;20673;48.980;8.138;2022-08-06T09:38:06;100886.61;;;26.08
34023;BMP280;20673;48.980;8.138;2022-08-06T09:40:34;100883.94;;;26.47
34023;BMP280;20673;48.980;8.138;2022-08-06T09:43:00;100892.79;;;26.60
34023;BMP280;20673;48.980;8.138;2022-08-06T09:45:26;100893.75;;;26.76
34023;BMP280;20673;48.980;8.138;2022-08-06T09:48:06;100891.23;;;26.77
34023;BMP280;20673;48.980;8.138;2022-08-06T09:50:43;100892.93;;;26.86
34023;BMP280;20673;48.980;8.138;2022-08-06T09:53:10;100889.83;;;26.98
34023;BMP280;20673;48.980;8.138;2022-08-06T09:55:37;100886.18;;;27.02
34023;BMP280;20673;48.980;8.138;2022-08-06T09:58:03;100880.87;;;27.06
34023;BMP280;20673;48.980;8.138;2022-08-06T10:00:33;100888.72;;;27.26
34023;BMP280;20673;48.980;8.138;2022-08-06T10:03:07;100887.62;;;27.37
34023;BMP280;20673;48.980;8.138;2022-08-06T10:05:34;100892.38;;;27.70
34023;BMP280;20673;48.980;8.138;2022-08-06T10:08:13;100887.36;;;27.76
34023;BMP280;20673;48.980;8.138;2022-08-06T10:10:50;100895.61;;;28.07
34023;BMP280;20673;48.980;8.138;2022-08-06T10:13:23;100895.90;;;28.35
34023;BMP280;20673;48.980;8.138;2022-08-06T10:15:55;100895.15;;;28.27
34023;BMP280;20673;48.980;8.138;2022-08-06T10:18:40;100896.59;;;28.35
34023;BMP280;20673;48.980;8.138;2022-08-06T10:21:11;100898.79;;;27.83
34023;BMP280;20673;48.980;8.138;2022-08-06T10:23:41;100893.11;;;28.13
34023;BMP280;20673;48.980;8.138;2022-08-06T10:26:10;100892.59;;;28.52
34023;BMP280;20673;48.980;8.138;2022-08-06T10:28:40;100888.14;;;28.36
34023;BMP280;20673;48.980;8.138;2022-08-06T10:31:10;100889.47;;;28.42
34023;BMP280;20673;48.980;8.138;2022-08-06T10:36:34;100881.03;;;28.61
34023;BMP280;20673;48.980;8.138;2022-08-06T10:38:59;100885.53;;;28.49
34023;BMP280;20673;48.980;8.138;2022-08-06T10:41:27;100883.02;;;28.97
34023;BMP280;20673;48.980;8.138;2022-08-06T10:43:54;100880.16;;;29.25
34023;BMP280;20673;48.980;8.138;2022-08-06T10:46:22;100880.18;;;29.18
34023;BMP280;20673;48.980;8.138;2022-08-06T10:48:49;100872.83;;;29.27
34023;BMP280;20673;48.980;8.138;2022-08-06T10:51:16;100873.35;;;29.57
34023;BMP280;20673;48.980;8.138;2022-08-06T10:53:44;100876.13;;;29.58
34023;BMP280;20673;48.980;8.138;2022-08-06T10:56:14;100871.61;;;29.45
34023;BMP280;20673;48.980;8.138;2022-08-06T10:58:41;100868.86;;;29.33
34023;BMP280;20673;48.980;8.138;2022-08-06T11:04:22;100873.54;;;29.13
34023;BMP280;20673;48.980;8.138;2022-08-06T11:10:06;100866.54;;;29.41
34023;BMP280;20673;48.980;8.138;2022-08-06T11:12:57;100867.06;;;29.79
34023;BMP280;20673;48.980;8.138;2022-08-06T11:15:25;100858.01;;;29.99
34023;BMP280;20673;48.980;8.138;2022-08-06T11:17:54;100852.95;;;30.04
34023;BMP280;20673;48.980;8.138;2022-08-06T11:20:45;100855.15;;;30.44
34023;BMP280;20673;48.980;8.138;2022-08-06T11:25:49;100853.11;;;30.38
34023;BMP280;20673;48.980;8.138;2022-08-06T11:31:03;100843.29;;;29.89
34023;BMP280;20673;48.980;8.138;2022-08-06T11:36:23;100831.89;;;29.81
34023;BMP280;20673;48.980;8.138;2022-08-06T11:41:26;100833.47;;;29.61
34023;BMP280;20673;48.980;8.138;2022-08-06T11:49:12;100831.36;;;29.86
34023;BMP280;20673;48.980;8.138;2022-08-06T11:57:18;100821.12;;;31.02
34023;BMP280;20673;48.980;8.138;2022-08-06T12:02:48;100804.23;;;31.06
34023;BMP280;20673;48.980;8.138;2022-08-06T12:11:26;100804.79;;;31.51
34023;BMP280;20673;48.980;8.138;2022-08-06T12:13:56;100807.58;;;31.33
34023;BMP280;20673;48.980;8.138;2022-08-06T12:16:36;100809.42;;;31.71
34023;BMP280;20673;48.980;8.138;2022-08-06T12:19:05;100804.51;;;31.22
34023;BMP280;20673;48.980;8.138;2022-08-06T12:21:33;100800.36;;;31.22
34023;BMP280;20673;48.980;8.138;2022-08-06T12:24:00;100803.17;;;31.38
34023;BMP280;20673;48.980;8.138;2022-08-06T12:26:30;100798.03;;;31.16
34023;BMP280;20673;48.980;8.138;2022-08-06T12:29:03;100792.37;;;31.72
34023;BMP280;20673;48.980;8.138;2022-08-06T12:31:33;100788.81;;;31.15
34023;BMP280;20673;48.980;8.138;2022-08-06T12:34:01;100785.39;;;31.17
34023;BMP280;20673;48.980;8.138;2022-08-06T12:36:32;100782.34;;;31.35
34023;BMP280;20673;48.980;8.138;2022-08-06T12:39:01;100780.76;;;31.38
34023;BMP280;20673;48.980;8.138;2022-08-06T12:41:39;100778.73;;;31.19
34023;BMP280;20673;48.980;8.138;2022-08-06T12:44:07;100772.47;;;31.09
34023;BMP280;20673;48.980;8.138;2022-08-06T12:46:34;100776.83;;;31.33
34023;BMP280;20673;48.980;8.138;2022-08-06T12:49:00;100760.47;;;31.26
34023;BMP280;20673;48.980;8.138;2022-08-06T12:51:27;100754.58;;;31.58
34023;BMP280;20673;48.980;8.138;2022-08-06T12:54:04;100758.97;;;31.27
34023;BMP280;20673;48.980;8.138;2022-08-06T12:56:33;100755.67;;;31.58
34023;BMP280;20673;48.980;8.138;2022-08-06T12:59:04;100754.93;;;31.87
34023;BMP280;20673;48.980;8.138;2022-08-06T13:01:34;100755.35;;;31.78
34023;BMP280;20673;48.980;8.138;2022-08-06T13:04:02;100755.04;;;31.28
34023;BMP280;20673;48.980;8.138;2022-08-06T13:06:32;100753.78;;;31.89
34023;BMP280;20673;48.980;8.138;2022-08-06T13:09:00;100752.15;;;30.86
34023;BMP280;20673;48.980;8.138;2022-08-06T13:11:31;100751.48;;;30.64
34023;BMP280;20673;48.980;8.138;2022-08-06T13:13:57;100744.53;;;30.91
34023;BMP280;20673;48.980;8.138;2022-08-06T13:16:25;100740.59;;;31.38
34023;BMP280;20673;48.980;8.138;2022-08-06T13:19:12;100734.48;;;31.38
34023;BMP280;20673;48.980;8.138;2022-08-06T13:21:36;100742.17;;;31.60
34023;BMP280;20673;48.980;8.138;2022-08-06T13:24:04;100739.53;;;31.57
34023;BMP280;20673;48.980;8.138;2022-08-06T13:26:33;100738.81;;;32.26
34023;BMP280;20673;48.980;8.138;2022-08-06T13:29:24;100729.98;;;32.05
34023;BMP280;20673;48.980;8.138;2022-08-06T13:32:07;100742.52;;;31.84
34023;BMP280;20673;48.980;8.138;2022-08-06T13:34:53;100731.20;;;32.19
34023;BMP280;20673;48.980;8.138;2022-08-06T13:37:50;100724.36;;;31.98
34023;BMP280;20673;48.980;8.138;2022-08-06T13:40:19;100722.12;;;32.33
34023;BMP280;20673;48.980;8.138;2022-08-06T13:42:51;100716.65;;;32.47
34023;BMP280;20673;48.980;8.138;2022-08-06T13:45:25;100722.79;;;32.85
34023;BMP280;20673;48.980;8.138;2022-08-06T13:48:02;100721.28;;;32.99
34023;BMP280;20673;48.980;8.138;2022-08-06T13:50:34;100721.18;;;32.14
34023;BMP280;20673;48.980;8.138;2022-08-06T13:53:03;100714.01;;;31.92
34023;BMP280;20673;48.980;8.138;2022-08-06T13:55:30;100715.25;;;32.60
34023;BMP280;20673;48.980;8.138;2022-08-06T13:57:57;100706.66;;;32.43
34023;BMP280;20673;48.980;8.138;2022-08-06T14:00:24;100706.39;;;32.60
34023;BMP280;20673;48.980;8.138;2022-08-06T14:02:52;100702.97;;;32.29
34023;BMP280;20673;48.980;8.138;2022-08-06T14:05:19;100701.85;;;32.51
34023;BMP280;20673;48.980;8.138;2022-08-06T14:07:45;100693.56;;;32.66
34023;BMP280;20673;48.980;8.138;2022-08-06T14:10:12;100695.99;;;32.62
34023;BMP280;20673;48.980;8.138;2022-08-06T14:12:39;100698.70;;;32.27
34023;BMP280;20673;48.980;8.138;2022-08-06T14:15:07;100695.50;;;31.53
34023;BMP280;20673;48.980;8.138;2022-08-06T14:17:34;100692.90;;;32.42
34023;BMP280;20673;48.980;8.138;2022-08-06T14:20:01;100686.47;;;32.59
34023;BMP280;20673;48.980;8.138;2022-08-06T14:22:28;100679.67;;;31.96
34023;BMP280;20673;48.980;8.138;2022-08-06T14:24:54;100679.00;;;31.08
34023;BMP280;20673;48.980;8.138;2022-08-06T14:27:21;100679.98;;;31.43
34023;BMP280;20673;48.980;8.138;2022-08-06T14:29:47;100677.78;;;31.52
34023;BMP280;20673;48.980;8.138;2022-08-06T14:32:13;100679.22;;;31.38
34023;BMP280;20673;48.980;8.138;2022-08-06T14:34:39;100672.34;;;32.04
34023;BMP280;20673;48.980;8.138;2022-08-06T14:37:05;100662.04;;;31.69
34023;BMP280;20673;48.980;8.138;2022-08-06T14:39:32;100666.51;;;32.26
34023;BMP280;20673;48.980;8.138;2022-08-06T14:41:58;100666.72;;;32.11
34023;BMP280;20673;48.980;8.138;2022-08-06T14:44:29;100662.78;;;32.11
34023;BMP280;20673;48.980;8.138;2022-08-06T14:47:13;100663.12;;;31.91
34023;BMP280;20673;48.980;8.138;2022-08-06T14:49:39;100670.15;;;31.49
34023;BMP280;20673;48.980;8.138;2022-08-06T14:52:05;100661.47;;;32.01
34023;BMP280;20673;48.980;8.138;2022-08-06T14:54:32;100662.23;;;31.75
34023;BMP280;20673;48.980;8.138;2022-08-06T14:57:02;100658.75;;;32.11
34023;BMP280;20673;48.980;8.138;2022-08-06T14:59:28;100651.92;;;32.12
34023;BMP280;20673;48.980;8.138;2022-08-06T15:01:55;100650.56;;;31.71
34023;BMP280;20673;48.980;8.138;2022-08-06T15:04:22;100647.89;;;32.24
34023;BMP280;20673;48.980;8.138;2022-08-06T15:06:49;100644.10;;;32.35
34023;BMP280;20673;48.980;8.138;2022-08-06T15:09:15;100644.37;;;31.68
34023;BMP280;20673;48.980;8.138;2022-08-06T15:11:41;100644.08;;;31.24
34023;BMP280;20673;48.980;8.138;2022-08-06T15:14:08;100647.48;;;31.21
34023;BMP280;20673;48.980;8.138;2022-08-06T15:16:34;100637.26;;;31.93
34023;BMP280;20673;48.980;8.138;2022-08-06T15:19:00;100638.45;;;31.68
34023;BMP280;20673;48.980;8.138;2022-08-06T15:21:26;100638.93;;;31.20
34023;BMP280;20673;48.980;8.138;2022-08-06T15:23:52;100630.33;;;31.38